Time;durP1;ratioP1;P1;durP2;ratioP2;P2;SDS_P1;SDS_P2;PMS_P1;PMS_P2;Temp;Humidity;BMP_temperature;BMP_pressure;BME280_temperature;BME280_humidity;BME280_pressure;Samples;Min_cycle;Max_cycle;Signal;HPM_P1;HPM_P2
2021/07/13 00:00:36;;;;;;;;;;;19.10;97.00;;;;;;5074067;28;19908;-68
2021/07/13 00:03:02;;;;;;;;;;;19.00;97.20;;;;;;5073428;28;19905;-68
2021/07/13 00:05:29;;;;;;;;;;;18.90;97.60;;;;;;5072315;28;19905;-68
2021/07/13 00:07:55;;;;;;;;;;;18.80;98.20;;;;;;5074049;28;19912;-68
2021/07/13 00:10:22;;;;;;;;;;;18.70;98.50;;;;;;5073312;28;20301;-68
2021/07/13 00:12:48;;;;;;;;;;;18.70;98.80;;;;;;5073415;28;19908;-68
2021/07/13 00:15:21;;;;;;;4.50;4.00;;;18.70;98.80;;;;;;5073089;28;20400;-69
2021/07/13 00:17:51;;;;;;;5.20;3.90;;;18.70;99.10;;;;;;5071796;28;20378;-68
2021/07/13 00:20:17;;;;;;;4.60;3.95;;;18.70;99.10;;;;;;5070107;28;20410;-68
2021/07/13 00:22:43;;;;;;;5.70;3.90;;;18.70;99.30;;;;;;5071868;28;20378;-69
2021/07/13 00:25:11;;;;;;;4.30;3.90;;;18.70;99.40;;;;;;5071672;28;20378;-68
2021/07/13 00:27:37;;;;;;;5.25;4.03;;;18.70;99.80;;;;;;5071669;28;20445;-69
2021/07/13 00:30:07;;;;;;;5.10;4.30;;;18.60;99.90;;;;;;5071578;28;20374;-69
2021/07/13 00:32:33;;;;;;;7.30;4.20;;;18.60;99.90;;;;;;5070287;28;20374;-69
2021/07/13 00:34:59;;;;;;;4.53;4.10;;;18.60;99.90;;;;;;5071677;28;20871;-70
2021/07/13 00:37:25;;;;;;;6.85;4.10;;;18.50;99.90;;;;;;5071315;28;20398;-69
2021/07/13 00:39:51;;;;;;;4.90;4.32;;;18.60;99.90;;;;;;5070068;28;20413;-69
2021/07/13 00:42:17;;;;;;;4.78;4.15;;;18.50;99.90;;;;;;5071572;28;20719;-69
2021/07/13 00:44:44;;;;;;;4.90;4.32;;;18.50;99.90;;;;;;5070432;28;20382;-68
2021/07/13 00:47:10;;;;;;;6.07;4.05;;;18.50;99.90;;;;;;5071391;28;20713;-69
2021/07/13 00:49:37;;;;;;;4.72;4.10;;;18.60;99.90;;;;;;5071271;28;20381;-69
2021/07/13 00:52:04;;;;;;;4.72;4.10;;;18.60;99.90;;;;;;5070157;28;20366;-69
2021/07/13 00:54:30;;;;;;;8.00;4.47;;;18.60;99.90;;;;;;5071358;28;20378;-69
2021/07/13 00:56:56;;;;;;;7.20;4.35;;;18.60;99.90;;;;;;5071272;28;20385;-69
2021/07/13 00:59:22;;;;;;;4.70;4.30;;;18.60;99.90;;;;;;5071110;28;20401;-69
2021/07/13 01:01:49;;;;;;;5.28;4.28;;;18.60;99.90;;;;;;5071255;28;20748;-68
2021/07/13 01:04:16;;;;;;;6.03;4.57;;;18.60;99.90;;;;;;5070024;28;20367;-69
2021/07/13 01:06:54;;;;;;;4.95;4.40;;;18.60;99.90;;;;;;5069786;28;20402;-69
2021/07/13 01:09:46;;;;;;;5.22;4.55;;;18.60;99.90;;;;;;5071232;28;20381;-69
2021/07/13 01:12:16;;;;;;;7.65;4.60;;;18.50;99.90;;;;;;5070278;28;20383;-70
2021/07/13 01:14:50;;;;;;;4.97;4.35;;;18.50;99.90;;;;;;5070178;28;20377;-69
2021/07/13 01:17:18;;;;;;;6.97;4.57;;;18.60;99.90;;;;;;5054078;28;20739;-70
2021/07/13 01:20:03;;;;;;;7.35;4.50;;;18.60;99.90;;;;;;5053110;28;20412;-70
2021/07/13 01:22:39;;;;;;;6.35;4.40;;;18.60;99.90;;;;;;5071191;28;20362;-69
2021/07/13 01:25:11;;;;;;;5.38;4.32;;;18.50;99.90;;;;;;5070181;28;20762;-68
2021/07/13 01:27:40;;;;;;;5.63;4.27;;;18.50;99.90;;;;;;5070035;28;20362;-69
2021/07/13 01:30:14;;;;;;;5.78;4.10;;;18.60;99.90;;;;;;5071211;28;20370;-70
2021/07/13 01:32:41;;;;;;;4.57;3.80;;;18.70;99.90;;;;;;5071369;28;20371;-70
2021/07/13 01:35:09;;;;;;;5.80;3.87;;;18.80;99.90;;;;;;5053442;28;20397;-69
2021/07/13 01:37:36;;;;;;;5.30;3.90;;;18.90;99.90;;;;;;5070723;28;20397;-69
2021/07/13 01:40:07;;;;;;;5.53;3.93;;;18.90;99.90;;;;;;5070804;28;20398;-70
2021/07/13 01:42:33;;;;;;;6.37;3.97;;;19.00;99.90;;;;;;5071127;28;20370;-70
2021/07/13 01:44:59;;;;;;;5.60;4.00;;;18.90;99.90;;;;;;5055053;28;20370;-69
2021/07/13 01:47:26;;;;;;;4.93;4.28;;;18.90;99.90;;;;;;5056935;28;20727;-69
2021/07/13 01:49:52;;;;;;;4.85;4.32;;;18.80;99.90;;;;;;5073005;28;20383;-69
2021/07/13 01:52:18;;;;;;;7.38;4.45;;;18.60;99.90;;;;;;5073219;28;20366;-70
2021/07/13 01:54:44;;;;;;;7.07;4.28;;;18.50;99.90;;;;;;5056663;28;20378;-68
2021/07/13 01:57:10;;;;;;;5.25;4.70;;;18.40;99.90;;;;;;5073150;28;20371;-68
2021/07/13 01:59:39;;;;;;;5.95;4.88;;;18.30;99.90;;;;;;5056455;28;20417;-69
2021/07/13 02:02:05;;;;;;;6.72;4.50;;;18.30;99.90;;;;;;5056727;28;20442;-70
2021/07/13 02:04:33;;;;;;;5.70;4.50;;;18.30;99.90;;;;;;5072678;28;20386;-70
2021/07/13 02:07:03;;;;;;;5.20;4.20;;;18.50;99.90;;;;;;5074135;28;20427;-70
2021/07/13 02:09:29;;;;;;;5.17;4.10;;;18.60;99.90;;;;;;5073015;28;20383;-70
2021/07/13 02:11:56;;;;;;;6.07;4.05;;;18.70;99.90;;;;;;5056325;28;20374;-70
2021/07/13 02:14:22;;;;;;;4.87;4.37;;;18.70;99.90;;;;;;5056418;28;20371;-69
2021/07/13 02:16:49;;;;;;;5.70;4.50;;;18.60;99.90;;;;;;5056211;28;20396;-69
2021/07/13 02:19:15;;;;;;;7.43;4.70;;;18.50;99.90;;;;;;5072363;28;20403;-69
2021/07/13 02:21:41;;;;;;;7.60;4.70;;;18.40;99.90;;;;;;5073799;28;20383;-69
2021/07/13 02:24:07;;;;;;;6.72;4.47;;;18.20;99.90;;;;;;5072846;28;20394;-69
2021/07/13 02:26:42;;;;;;;7.68;4.68;;;18.10;99.90;;;;;;5074168;28;20374;-69
2021/07/13 02:29:14;;;;;;;7.28;5.00;;;18.00;99.90;;;;;;5072919;28;20859;-69
2021/07/13 02:32:02;;;;;;;7.50;4.95;;;18.00;99.90;;;;;;5073739;28;20374;-68
2021/07/13 02:34:29;;;;;;;5.38;4.88;;;17.90;99.90;;;;;;5073647;28;20378;-69
2021/07/13 02:36:57;;;;;;;7.95;5.28;;;17.80;99.90;;;;;;5055523;28;20402;-69
2021/07/13 02:39:23;;;;;;;7.65;5.30;;;17.80;99.90;;;;;;5072291;28;20413;-69
2021/07/13 02:41:52;;;;;;;6.13;5.20;;;17.80;99.90;;;;;;5073499;28;20858;-69
2021/07/13 02:44:19;;;;;;;6.55;5.35;;;17.80;99.90;;;;;;5056003;28;20386;-68
2021/07/13 02:46:45;;;;;;;5.95;4.97;;;17.80;99.90;;;;;;5072356;28;20899;-69
2021/07/13 02:49:23;;;;;;;6.50;5.10;;;17.90;99.90;;;;;;5055381;28;20397;-68
2021/07/13 02:51:53;;;;;;;6.20;5.10;;;17.90;99.90;;;;;;5056988;28;20374;-69
2021/07/13 02:54:21;;;;;;;11.45;5.50;;;18.00;99.90;;;;;;5073228;28;20386;-68
2021/07/13 02:56:47;;;;;;;5.93;5.00;;;18.00;99.90;;;;;;5072174;28;20378;-68
2021/07/13 02:59:13;;;;;;;7.47;5.00;;;18.00;99.90;;;;;;5055341;28;20386;-69
2021/07/13 03:01:39;;;;;;;6.43;5.23;;;18.00;99.90;;;;;;5055068;28;20858;-70
2021/07/13 03:04:05;;;;;;;7.80;4.80;;;18.00;99.90;;;;;;5072017;28;20370;-69
2021/07/13 03:06:32;;;;;;;8.70;5.15;;;18.00;99.90;;;;;;5071808;28;20394;-69
2021/07/13 03:08:58;;;;;;;6.65;4.88;;;18.10;99.90;;;;;;5055235;28;20366;-69
2021/07/13 03:11:24;;;;;;;7.30;4.70;;;18.10;99.90;;;;;;5072900;28;20374;-70
2021/07/13 03:13:50;;;;;;;5.55;4.75;;;18.10;99.90;;;;;;5038892;28;20378;-69
2021/07/13 03:16:16;;;;;;;6.32;4.90;;;18.10;99.90;;;;;;5072914;28;20381;-69
2021/07/13 03:18:42;;;;;;;6.45;4.93;;;18.20;99.90;;;;;;5072876;28;20378;-69
2021/07/13 03:21:09;;;;;;;7.37;4.70;;;18.20;99.90;;;;;;5072556;28;20402;-69
2021/07/13 03:23:37;;;;;;;7.15;5.13;;;18.20;99.90;;;;;;5054985;28;20381;-69
2021/07/13 03:26:03;;;;;;;6.38;4.68;;;18.20;99.90;;;;;;5071532;28;20855;-69
2021/07/13 03:28:30;;;;;;;6.03;4.77;;;18.20;99.90;;;;;;5071430;28;20850;-70
2021/07/13 03:30:57;;;;;;;7.38;4.80;;;18.20;99.90;;;;;;5054799;28;20390;-69
2021/07/13 03:33:23;;;;;;;7.57;4.80;;;18.20;99.90;;;;;;5072693;28;20371;-68
2021/07/13 03:35:49;;;;;;;7.50;4.90;;;18.20;99.90;;;;;;5054613;28;20381;-68
2021/07/13 03:38:16;;;;;;;7.03;4.90;;;18.10;99.90;;;;;;5072106;28;20378;-69
2021/07/13 03:40:42;;;;;;;6.93;4.90;;;18.10;99.90;;;;;;5054482;28;20405;-69
2021/07/13 03:43:08;;;;;;;7.43;5.28;;;18.10;99.90;;;;;;5071093;28;20386;-69
2021/07/13 03:45:34;;;;;;;6.90;5.00;;;18.10;99.90;;;;;;5072443;28;20386;-70
2021/07/13 03:48:01;;;;;;;5.30;4.80;;;18.10;99.90;;;;;;5071198;28;20378;-69
2021/07/13 03:50:29;;;;;;;5.88;5.00;;;18.00;99.90;;;;;;5072464;28;20733;-69
2021/07/13 03:52:55;;;;;;;6.05;4.90;;;18.10;99.90;;;;;;5072223;28;20371;-69
2021/07/13 03:55:21;;;;;;;5.40;4.53;;;18.20;99.90;;;;;;5072328;28;20386;-69
2021/07/13 03:57:48;;;;;;;5.40;4.82;;;18.20;99.90;;;;;;5072174;28;20370;-70
2021/07/13 04:00:16;;;;;;;6.18;4.68;;;18.20;99.90;;;;;;5071753;28;20398;-70
2021/07/13 04:02:42;;;;;;;6.85;4.80;;;18.20;99.90;;;;;;5054265;28;20386;-70
2021/07/13 04:05:09;;;;;;;5.40;4.70;;;18.20;99.90;;;;;;5071836;28;20396;-69
2021/07/13 04:07:35;;;;;;;6.23;4.70;;;18.20;99.90;;;;;;5071908;28;20401;-70
2021/07/13 04:10:03;;;;;;;5.78;4.60;;;18.30;99.90;;;;;;5071997;28;20404;-71
2021/07/13 04:12:29;;;;;;;4.85;4.38;;;18.30;99.90;;;;;;5071882;28;20381;-70
2021/07/13 04:14:55;;;;;;;5.47;4.13;;;18.40;99.90;;;;;;5071943;28;20394;-70
2021/07/13 04:17:22;;;;;;;6.37;4.20;;;18.50;99.90;;;;;;5071811;28;20379;-70
2021/07/13 04:19:48;;;;;;;4.57;3.90;;;18.70;99.90;;;;;;5070101;28;20413;-71
2021/07/13 04:22:14;;;;;;;4.97;3.80;;;18.70;99.90;;;;;;5071859;28;20370;-71
2021/07/13 04:24:40;;;;;;;7.72;3.80;;;18.80;99.90;;;;;;5071837;28;20735;-70
2021/07/13 04:27:06;;;;;;;4.50;3.80;;;18.90;99.90;;;;;;5071699;28;20381;-70
2021/07/13 04:29:32;;;;;;;4.00;3.60;;;19.00;99.90;;;;;;5071705;28;20378;-70
2021/07/13 04:31:58;;;;;;;4.88;3.72;;;19.10;99.90;;;;;;5071595;28;20389;-70
2021/07/13 04:34:25;;;;;;;;;;;19.10;99.90;;;;;;5071513;28;20394;-70
2021/07/13 04:36:50;;;;;;;;;;;19.20;99.70;;;;;;5072881;28;20003;-69
2021/07/13 04:39:16;;;;;;;6.57;3.85;;;19.30;99.10;;;;;;5072244;28;20856;-69
2021/07/13 04:41:42;;;;;;;5.93;3.70;;;19.20;98.90;;;;;;5071379;28;20393;-71
2021/07/13 04:44:08;;;;;;;5.60;3.70;;;19.20;99.20;;;;;;5071647;28;20378;-69
2021/07/13 04:46:35;;;;;;;;;;;19.30;99.10;;;;;;5073298;28;20398;-71
2021/07/13 04:49:00;;;;;;;;;;;19.30;98.40;;;;;;5072924;28;20258;-69
2021/07/13 04:51:26;;;;;;;;;;;19.40;98.60;;;;;;5071652;28;19908;-69
2021/07/13 04:53:52;;;;;;;;;;;19.40;99.30;;;;;;5073569;28;19908;-70
2021/07/13 04:56:18;;;;;;;;;;;19.40;99.40;;;;;;5072779;28;19905;-70
2021/07/13 04:58:44;;;;;;;;;;;19.50;98.60;;;;;;5073034;28;19909;-69
2021/07/13 05:01:10;;;;;;;;;;;19.50;99.50;;;;;;5072604;28;19985;-70
2021/07/13 05:03:36;;;;;;;;;;;19.50;99.00;;;;;;5071657;28;19911;-70
2021/07/13 05:06:02;;;;;;;;;;;19.50;99.20;;;;;;5072847;28;19991;-70
2021/07/13 05:08:28;;;;;;;;;;;19.60;99.00;;;;;;5072852;28;19950;-71
2021/07/13 05:10:54;;;;;;;;;;;19.60;98.90;;;;;;5072751;28;20353;-69
2021/07/13 05:13:20;;;;;;;;;;;19.70;98.90;;;;;;5072847;28;20281;-70
2021/07/13 05:15:46;;;;;;;;;;;19.70;98.70;;;;;;5072816;28;19916;-69
2021/07/13 05:18:12;;;;;;;4.90;3.60;;;19.80;98.30;;;;;;5071947;28;20397;-70
2021/07/13 05:20:43;;;;;;;3.85;3.45;;;19.90;98.00;;;;;;5072673;28;20405;-71
2021/07/13 05:23:10;;;;;;;;;;;20.00;97.70;;;;;;5075999;28;20882;-70
2021/07/13 05:25:36;;;;;;;;;;;20.10;98.10;;;;;;5076456;28;19908;-69
2021/07/13 05:28:02;;;;;;;5.13;3.42;;;20.20;97.60;;;;;;5075394;28;20409;-72
2021/07/13 05:30:29;;;;;;;5.60;3.20;;;20.30;96.80;;;;;;5075201;28;20750;-71
2021/07/13 05:32:55;;;;;;;;;;;20.40;96.50;;;;;;5074765;28;20394;-70
2021/07/13 05:35:21;;;;;;;;;;;20.40;97.00;;;;;;5076325;28;19912;-69
2021/07/13 05:37:47;;;;;;;;;;;20.50;96.00;;;;;;5073998;28;20399;-72
2021/07/13 05:40:13;;;;;;;4.97;3.47;;;20.60;96.30;;;;;;5072489;28;20429;-69
2021/07/13 05:42:40;;;;;;;6.05;3.50;;;20.80;95.40;;;;;;5074601;28;20378;-70
2021/07/13 05:45:07;;;;;;;3.40;3.10;;;20.90;95.80;;;;;;5074464;28;20389;-69
2021/07/13 05:47:33;;;;;;;6.28;3.40;;;21.00;96.10;;;;;;5074164;28;20405;-71
2021/07/13 05:49:59;;;;;;;4.47;3.10;;;21.20;94.70;;;;;;5073847;28;20375;-70
2021/07/13 05:52:25;;;;;;;5.78;3.25;;;21.40;93.90;;;;;;5072519;28;20377;-69
2021/07/13 05:54:51;;;;;;;4.45;3.30;;;21.50;93.70;;;;;;5074094;28;20385;-67
2021/07/13 05:57:17;;;;;;;5.07;2.90;;;21.60;93.50;;;;;;5073914;28;20727;-69
2021/07/13 05:59:44;;;;;;;6.40;3.10;;;21.70;93.50;;;;;;5072476;28;20386;-68
2021/07/13 06:02:10;;;;;;;5.13;3.20;;;21.70;93.20;;;;;;5104802;28;20386;-67
2021/07/13 06:04:36;;;;;;;3.95;3.10;;;21.80;92.90;;;;;;5098896;28;20721;-70
2021/07/13 06:07:03;;;;;;;3.80;3.05;;;21.80;93.40;;;;;;5076021;28;20736;-68
2021/07/13 06:09:29;;;;;;;4.90;3.13;;;21.90;93.20;;;;;;5098094;28;20375;-68
2021/07/13 06:11:56;;;;;;;5.88;3.40;;;21.90;93.10;;;;;;5108043;28;20398;-69
2021/07/13 06:14:22;;;;;;;3.90;3.30;;;21.90;93.40;;;;;;5091769;28;20855;-69
2021/07/13 06:16:48;;;;;;;5.43;3.25;;;21.90;93.70;;;;;;5098919;28;20388;-69
2021/07/13 06:19:15;;;;;;;4.90;3.40;;;22.00;93.40;;;;;;5088008;28;20847;-68
2021/07/13 06:21:41;;;;;;;4.18;3.20;;;22.00;93.60;;;;;;5095907;28;20900;-68
2021/07/13 06:24:07;;;;;;;3.58;3.20;;;22.10;93.80;;;;;;5075781;28;20377;-68
2021/07/13 06:26:33;;;;;;;5.40;3.78;;;22.10;93.50;;;;;;5107538;28;20394;-69
2021/07/13 06:28:59;;;;;;;4.25;3.50;;;22.40;93.70;;;;;;5103329;28;20876;-68
2021/07/13 06:31:26;;;;;;;4.03;3.25;;;22.40;93.10;;;;;;5107887;28;20374;-69
2021/07/13 06:33:52;;;;;;;5.43;3.20;;;22.80;92.80;;;;;;5097193;28;20384;-68
2021/07/13 06:36:18;;;;;;;6.73;3.50;;;22.70;93.10;;;;;;5113925;28;20395;-67
2021/07/13 06:38:44;;;;;;;4.18;3.70;;;22.70;92.90;;;;;;5105348;28;20373;-68
2021/07/13 06:41:10;;;;;;;16.73;3.80;;;22.80;92.80;;;;;;5100134;28;20412;-69
2021/07/13 06:43:36;;;;;;;5.55;3.70;;;22.70;92.90;;;;;;5098850;28;20369;-69
2021/07/13 06:46:02;;;;;;;5.93;3.95;;;22.70;93.20;;;;;;5095533;28;20756;-68
2021/07/13 06:48:28;;;;;;;6.82;3.63;;;22.70;93.70;;;;;;5093266;28;20371;-68
2021/07/13 06:50:54;;;;;;;6.07;4.03;;;22.70;93.20;;;;;;5093052;28;20402;-69
2021/07/13 06:53:21;;;;;;;4.40;3.50;;;22.80;93.20;;;;;;5099485;28;20374;-69
2021/07/13 06:55:47;;;;;;;5.40;3.75;;;22.90;93.00;;;;;;5103828;28;20373;-69
2021/07/13 06:58:13;;;;;;;5.15;3.50;;;23.00;92.70;;;;;;5106872;28;20363;-69
2021/07/13 07:00:39;;;;;;;8.57;3.90;;;23.00;92.80;;;;;;5095260;28;20761;-69
2021/07/13 07:03:06;;;;;;;7.23;3.80;;;23.20;93.20;;;;;;5109427;28;20369;-69
2021/07/13 07:05:32;;;;;;;4.70;3.67;;;23.20;92.50;;;;;;5100933;28;20371;-67
2021/07/13 07:07:58;;;;;;;8.00;3.78;;;23.20;92.40;;;;;;5102578;28;20397;-68
2021/07/13 07:10:24;;;;;;;4.63;3.25;;;23.30;92.50;;;;;;5108082;28;20383;-68
2021/07/13 07:12:51;;;;;;;6.25;3.50;;;23.30;92.40;;;;;;5098933;28;20385;-68
2021/07/13 07:15:17;;;;;;;9.95;3.63;;;23.30;92.40;;;;;;5094750;28;20375;-67
2021/07/13 07:17:45;;;;;;;5.03;3.70;;;23.30;93.20;;;;;;5091407;28;20392;-69
2021/07/13 07:20:13;;;;;;;4.18;3.28;;;23.60;92.70;;;;;;5092692;28;20781;-68
2021/07/13 07:22:39;;;;;;;7.77;3.60;;;23.80;91.90;;;;;;5092874;28;20718;-67
2021/07/13 07:25:06;;;;;;;5.32;3.30;;;24.10;90.90;;;;;;5092905;28;20395;-69
2021/07/13 07:27:32;;;;;;;4.20;3.20;;;24.30;91.40;;;;;;5092731;28;20384;-70
2021/07/13 07:29:58;;;;;;;7.35;4.50;;;24.40;91.20;;;;;;5092893;28;20850;-69
2021/07/13 07:32:24;;;;;;;5.60;3.00;;;24.60;90.90;;;;;;5092852;28;20377;-69
2021/07/13 07:34:50;;;;;;;11.02;4.60;;;24.40;90.60;;;;;;5092881;28;20857;-68
2021/07/13 07:37:17;;;;;;;7.28;3.38;;;24.60;90.60;;;;;;5092643;28;20411;-68
2021/07/13 07:39:43;;;;;;;5.53;3.13;;;24.70;91.00;;;;;;5091307;28;20884;-69
2021/07/13 07:42:09;;;;;;;9.73;6.47;;;24.70;89.70;;;;;;5092201;28;20415;-70
2021/07/13 07:44:35;;;;;;;4.72;3.28;;;24.70;89.20;;;;;;5092784;28;20387;-70
2021/07/13 07:47:01;;;;;;;4.95;3.38;;;24.70;89.40;;;;;;5092388;28;20376;-70
2021/07/13 07:49:27;;;;;;;8.50;3.97;;;24.70;89.60;;;;;;5092204;28;20372;-70
2021/07/13 07:51:53;;;;;;;6.70;3.28;;;25.00;89.00;;;;;;5091347;28;20380;-69
2021/07/13 07:54:19;;;;;;;8.75;4.38;;;25.00;88.10;;;;;;5092441;28;20372;-70
2021/07/13 07:56:45;;;;;;;7.20;4.50;;;25.20;88.80;;;;;;5092327;28;20373;-70
2021/07/13 07:59:11;;;;;;;5.53;3.00;;;25.40;87.90;;;;;;5092201;28;20376;-70
2021/07/13 08:01:37;;;;;;;5.72;2.90;;;25.50;87.00;;;;;;5090764;28;20401;-69
2021/07/13 08:04:03;;;;;;;5.20;2.80;;;25.70;87.10;;;;;;5092225;28;20373;-68
2021/07/13 08:06:30;;;;;;;6.05;2.90;;;26.00;86.70;;;;;;5092687;28;20407;-68
2021/07/13 08:08:56;;;;;;;4.78;3.40;;;26.30;86.70;;;;;;5092176;28;20378;-69
2021/07/13 08:11:22;;;;;;;3.65;2.83;;;26.50;83.90;;;;;;5092061;28;20384;-71
2021/07/13 08:13:48;;;;;;;7.18;2.80;;;26.60;82.40;;;;;;5092313;28;20380;-69
2021/07/13 08:16:14;;;;;;;5.63;3.17;;;26.60;83.60;;;;;;5092019;28;20384;-68
2021/07/13 08:18:40;;;;;;;6.20;2.95;;;26.90;83.00;;;;;;5092057;28;20375;-69
2021/07/13 08:21:06;;;;;;;6.75;4.07;;;27.10;81.30;;;;;;5089447;28;20411;-70
2021/07/13 08:23:32;;;;;;;5.72;2.70;;;27.40;80.10;;;;;;5090442;28;20389;-69
2021/07/13 08:25:59;;;;;;;7.30;3.95;;;27.50;76.40;;;;;;5090777;28;20387;-68
2021/07/13 08:28:25;;;;;;;4.65;2.90;;;27.40;76.40;;;;;;5091777;28;20380;-69
2021/07/13 08:30:51;;;;;;;5.80;2.80;;;27.20;76.60;;;;;;5091825;28;20954;-70
2021/07/13 08:33:17;;;;;;;4.22;2.97;;;27.50;77.40;;;;;;5091700;28;20384;-69
2021/07/13 08:35:43;;;;;;;5.57;2.50;;;27.70;78.80;;;;;;5091792;28;20376;-69
2021/07/13 08:38:09;;;;;;;5.30;2.50;;;27.80;75.40;;;;;;5091476;28;20404;-68
2021/07/13 08:40:35;;;;;;;5.50;2.90;;;28.00;73.60;;;;;;5091534;28;20393;-71
2021/07/13 08:43:01;;;;;;;6.35;2.60;;;28.20;73.50;;;;;;5091640;28;20263;-70
2021/07/13 08:45:27;;;;;;;26.05;18.80;;;28.50;72.90;;;;;;5091633;28;20759;-70
2021/07/13 08:47:54;;;;;;;28.35;17.75;;;29.00;70.70;;;;;;5091658;28;20372;-70
2021/07/13 08:50:21;;;;;;;4.22;3.13;;;29.30;70.40;;;;;;5091302;28;20714;-71
2021/07/13 08:52:47;;;;;;;4.18;2.53;;;29.70;69.20;;;;;;5090405;28;20449;-72
2021/07/13 08:55:14;;;;;;;3.90;2.28;;;29.80;68.80;;;;;;5095788;28;20896;-70
2021/07/13 08:57:40;;;;;;;4.07;2.70;;;29.90;69.80;;;;;;5094775;28;20372;-69
2021/07/13 09:00:09;;;;;;;12.38;8.18;;;30.20;65.80;;;;;;5095721;28;20738;-71
2021/07/13 09:02:35;;;;;;;5.70;2.72;;;30.10;65.40;;;;;;5095868;28;20853;-71
2021/07/13 09:05:01;;;;;;;12.25;6.63;;;30.20;65.10;;;;;;5094663;28;20377;-71
2021/07/13 09:07:30;;;;;;;4.95;3.08;;;30.20;65.40;;;;;;5096048;28;20402;-69
2021/07/13 09:10:06;;;;;;;6.38;4.05;;;30.60;64.50;;;;;;5095519;28;20385;-69
2021/07/13 09:12:32;;;;;;;5.85;2.70;;;30.80;64.00;;;;;;5094197;28;20376;-71
2021/07/13 09:15:00;;;;;;;318.70;16.63;;;30.80;63.30;;;;;;5095396;28;20380;-69
2021/07/13 09:17:34;;;;;;;7.20;2.63;;;31.00;63.00;;;;;;5095324;28;20391;-70
2021/07/13 09:20:06;;;;;;;2.80;2.40;;;31.60;61.70;;;;;;5077324;28;20737;-71
2021/07/13 09:22:32;;;;;;;4.45;2.50;;;31.70;60.30;;;;;;5095052;28;20881;-71
2021/07/13 09:24:58;;;;;;;5.47;2.15;;;31.90;60.20;;;;;;5095326;28;20369;-70
2021/07/13 09:27:24;;;;;;;4.83;2.23;;;32.20;58.90;;;;;;5095137;28;20384;-69
2021/07/13 09:29:52;;;;;;;5.75;2.10;;;31.90;60.10;;;;;;5094055;28;20737;-71
2021/07/13 09:32:25;;;;;;;3.63;2.00;;;32.00;58.40;;;;;;5093907;28;20388;-69
2021/07/13 09:35:04;;;;;;;6.25;2.22;;;32.30;58.70;;;;;;5095109;28;20706;-70
2021/07/13 09:37:31;;;;;;;3.55;1.95;;;32.60;59.20;;;;;;5093456;28;20464;-71
2021/07/13 09:40:09;;;;;;;230.02;17.08;;;32.90;57.10;;;;;;5091503;28;20364;-69
2021/07/13 09:42:56;;;;;;;8.50;2.20;;;32.50;57.10;;;;;;5092800;28;20405;-70
2021/07/13 09:45:33;;;;;;;13.13;2.47;;;32.30;57.10;;;;;;5092724;28;20377;-69
2021/07/13 09:48:08;;;;;;;3.17;2.40;;;31.60;57.80;;;;;;5091641;28;20392;-69
2021/07/13 09:50:39;;;;;;;3.50;2.40;;;31.50;59.10;;;;;;5092722;28;20721;-70
2021/07/13 09:53:15;;;;;;;5.18;2.60;;;31.70;57.40;;;;;;5092274;28;20380;-71
2021/07/13 09:55:42;;;;;;;5.90;2.60;;;31.70;57.50;;;;;;5094792;28;20365;-70
2021/07/13 09:58:19;;;;;;;4.97;2.50;;;31.70;58.20;;;;;;5094778;28;20396;-71
2021/07/13 10:00:58;;;;;;;4.70;2.60;;;32.00;58.00;;;;;;5094445;28;20450;-70
2021/07/13 10:03:24;;;;;;;6.53;2.60;;;32.30;55.70;;;;;;5094718;28;20391;-70
2021/07/13 10:05:52;;;;;;;3.60;2.58;;;31.80;55.40;;;;;;5092667;28;20725;-69
2021/07/13 10:08:19;;;;;;;6.55;2.60;;;31.60;57.00;;;;;;5094426;28;20392;-69
2021/07/13 10:10:46;;;;;;;3.90;3.00;;;30.90;57.70;;;;;;5076661;28;20373;-69
2021/07/13 10:13:16;;;;;;;6.28;2.92;;;31.40;60.00;;;;;;5094449;28;20376;-69
2021/07/13 10:15:44;;;;;;;13.35;2.83;;;32.00;55.40;;;;;;5094438;28;20454;-70
2021/07/13 10:18:10;;;;;;;7.03;2.88;;;31.90;55.00;;;;;;5094408;28;20383;-70
2021/07/13 10:20:37;;;;;;;4.88;2.60;;;32.10;56.30;;;;;;5093851;28;20410;-71
2021/07/13 10:23:05;;;;;;;4.93;2.73;;;32.40;54.20;;;;;;5092642;28;20380;-69
2021/07/13 10:25:35;;;;;;;4.00;2.73;;;32.60;55.30;;;;;;5076024;28;20691;-71
2021/07/13 10:28:02;;;;;;;6.00;2.60;;;32.50;54.20;;;;;;5092898;28;20876;-73
2021/07/13 10:30:28;;;;;;;5.93;2.90;;;32.80;55.40;;;;;;5092858;28;20380;-71
2021/07/13 10:32:54;;;;;;;5.82;2.70;;;32.80;53.80;;;;;;5094284;28;20392;-70
2021/07/13 10:35:24;;;;;;;5.40;2.58;;;32.80;54.80;;;;;;5092524;28;20365;-70
2021/07/13 10:37:55;;;;;;;3.50;2.70;;;32.50;54.80;;;;;;5093574;28;20403;-70
2021/07/13 10:40:27;;;;;;;4.95;2.67;;;31.90;56.10;;;;;;5092674;28;20372;-70
2021/07/13 10:42:54;;;;;;;4.63;2.93;;;30.90;57.10;;;;;;5093751;28;20380;-70
2021/07/13 10:45:31;;;;;;;5.22;2.90;;;30.50;58.60;;;;;;5075899;28;20369;-70
2021/07/13 10:47:57;;;;;;;6.35;3.03;;;30.80;59.30;;;;;;5092540;28;20457;-69
2021/07/13 10:50:26;;;;;;;4.72;3.00;;;31.40;60.10;;;;;;5093602;28;20377;-70
2021/07/13 10:52:54;;;;;;;4.53;3.17;;;31.00;58.00;;;;;;5093594;28;20376;-70
2021/07/13 10:55:32;;;;;;;6.73;3.30;;;30.80;59.10;;;;;;5093640;28;20377;-70
2021/07/13 10:58:10;;;;;;;10.75;5.55;;;30.50;59.80;;;;;;5093482;28;20394;-70
2021/07/13 11:00:54;;;;;;;7.30;3.50;;;30.50;60.20;;;;;;5093440;28;20451;-65
2021/07/13 11:03:29;;;;;;;6.32;3.40;;;30.40;60.90;;;;;;5093500;28;20872;-64
2021/07/13 11:06:08;;;;;;;11.48;3.65;;;29.50;59.50;;;;;;5093273;28;20376;-63
2021/07/13 11:08:41;;;;;;;4.10;3.70;;;29.30;62.20;;;;;;5093387;28;20399;-62
2021/07/13 11:11:08;;;;;;;5.47;3.42;;;29.20;63.00;;;;;;5093285;28;20387;-63
2021/07/13 11:13:34;;;;;;;4.17;3.60;;;29.40;62.90;;;;;;5093144;28;20384;-63
2021/07/13 11:16:01;;;;;;;5.85;3.60;;;29.90;61.80;;;;;;5092967;28;20376;-62
2021/07/13 11:18:27;;;;;;;;;;;30.10;61.40;;;;;;5091579;28;20392;-62
2021/07/13 11:20:53;;;;;;;;;;;30.20;60.70;;;;;;5092684;28;19908;-62
2021/07/13 11:23:26;;;;;;;;;;;29.90;61.20;;;;;;5094478;28;20375;-62
2021/07/13 11:26:04;;;;;;;;;;;30.10;60.40;;;;;;5094612;28;19915;-62
2021/07/13 11:28:29;;;;;;;;;;;30.20;61.10;;;;;;5094318;28;19904;-62
2021/07/13 11:30:55;;;;;;;;;;;30.90;60.00;;;;;;5094603;28;19914;-62
2021/07/13 11:33:25;;;;;;;;;;;30.90;58.80;;;;;;5094581;28;20384;-63
2021/07/13 11:35:51;;;;;;;;;;;30.70;58.90;;;;;;5094384;28;20375;-61
2021/07/13 11:38:27;;;;;;;;;;;30.90;59.40;;;;;;5093106;28;19920;-62
2021/07/13 11:41:09;;;;;;;;;;;30.90;58.40;;;;;;5094053;28;19904;-62
2021/07/13 11:43:35;;;;;;;;;;;30.90;59.20;;;;;;5094298;28;19908;-62
2021/07/13 11:46:20;;;;;;;;;;;31.20;58.90;;;;;;5094721;28;19923;-65
2021/07/13 11:48:53;;;;;;;;;;;31.90;59.10;;;;;;5094273;28;20356;-69
2021/07/13 11:51:25;;;;;;;;;;;32.00;58.10;;;;;;5093960;28;19911;-68
2021/07/13 11:54:01;;;;;;;;;;;31.80;58.40;;;;;;5094217;28;19904;-68
2021/07/13 11:56:28;;;;;;;;;;;31.30;57.50;;;;;;5094254;28;19904;-69
2021/07/13 11:58:53;;;;;;;;;;;30.60;59.60;;;;;;5094067;28;20374;-68
2021/07/13 12:01:23;;;;;;;;;;;30.00;61.80;;;;;;5093732;28;19918;-68
2021/07/13 12:03:49;;;;;;;;;;;29.30;62.40;;;;;;5093924;28;19908;-69
2021/07/13 12:06:19;;;;;;;;;;;28.90;63.80;;;;;;5094031;28;19912;-69
2021/07/13 12:09:12;;;;;;;;;;;28.70;66.60;;;;;;5093849;28;19904;-67
2021/07/13 12:11:40;;;;;;;;;;;28.40;66.30;;;;;;5092694;28;19904;-68
2021/07/13 12:14:08;;;;;;;;;;;28.50;66.60;;;;;;5093687;28;20400;-68
2021/07/13 12:16:34;;;;;;;;;;;28.50;67.10;;;;;;5093605;28;19904;-67
2021/07/13 12:19:01;;;;;;;;;;;28.50;66.40;;;;;;5093852;28;19969;-68
2021/07/13 12:21:27;;;;;;;;;;;28.50;67.70;;;;;;5091922;28;20288;-67
2021/07/13 12:23:53;;;;;;;;;;;28.80;67.50;;;;;;5093633;28;19912;-68
2021/07/13 12:26:25;;;;;;;;;;;28.90;66.60;;;;;;5093563;28;20374;-68
2021/07/13 12:29:00;;;;;;;;;;;28.90;66.60;;;;;;5093281;28;20248;-69
2021/07/13 12:31:26;;;;;;;;;;;28.90;65.10;;;;;;5093450;28;19911;-68
2021/07/13 12:33:53;;;;;;;;;;;28.80;65.20;;;;;;5092361;28;19904;-68
2021/07/13 12:36:28;;;;;;;;;;;28.70;65.40;;;;;;5093356;28;19916;-68
2021/07/13 12:38:56;;;;;;;;;;;28.70;66.10;;;;;;5093047;28;20137;-67
2021/07/13 12:41:25;;;;;;;;;;;28.80;66.50;;;;;;5093139;28;19924;-68
2021/07/13 12:43:51;;;;;;;;;;;28.50;67.40;;;;;;5093362;28;19923;-68
2021/07/13 12:46:30;;;;;;;;;;;28.40;67.70;;;;;;5093362;28;19912;-69
2021/07/13 12:48:56;;;;;;;;;;;28.60;68.70;;;;;;5093331;28;19916;-68
2021/07/13 12:51:25;;;;;;;;;;;28.70;66.50;;;;;;5092992;28;19919;-68
2021/07/13 12:54:04;;;;;;;;;;;28.80;66.90;;;;;;5093313;28;19908;-68
2021/07/13 12:56:30;;;;;;;;;;;28.80;66.20;;;;;;5093267;28;19935;-69
2021/07/13 12:59:05;;;;;;;;;;;28.80;66.90;;;;;;5093334;28;19920;-69
2021/07/13 13:01:31;;;;;;;;;;;28.80;67.00;;;;;;5093137;28;20373;-68
2021/07/13 13:04:13;;;;;;;;;;;28.80;67.30;;;;;;5093259;28;19939;-68
2021/07/13 13:06:39;;;;;;;;;;;29.00;67.00;;;;;;5093278;28;19916;-68
2021/07/13 13:09:06;;;;;;;;;;;29.30;65.40;;;;;;5093388;28;20253;-67